sensor_id;sensor_type;location;lat;lon;timestamp;P1;durP1;ratioP1;P2;durP2;ratioP2
8958;SDS011;4514;49.476;8.484;2022-09-03T00:02:15;1.40;;;1.30;;
8958;SDS011;4514;49.476;8.484;2022-09-03T00:07:41;1.55;;;1.10;;
8958;SDS011;4514;49.476;8.484;2022-09-03T00:10:18;1.15;;;1.05;;
8958;SDS011;4514;49.476;8.484;2022-09-03T00:12:52;1.67;;;1.10;;
8958;SDS011;4514;49.476;8.484;2022-09-03T00:15:21;1.70;;;1.30;;
8958;SDS011;4514;49.476;8.484;2022-09-03T00:22:52;1.85;;;1.10;;
8958;SDS011;4514;49.476;8.484;2022-09-03T00:25:20;1.10;;;1.10;;
8958;SDS011;4514;49.476;8.484;2022-09-03T00:27:52;1.58;;;1.20;;
8958;SDS011;4514;49.476;8.484;2022-09-03T00:30:20;1.92;;;1.30;;
8958;SDS011;4514;49.476;8.484;2022-09-03T00:33:02;1.75;;;1.33;;
8958;SDS011;4514;49.476;8.484;2022-09-03T00:35:35;4.70;;;1.40;;
8958;SDS011;4514;49.476;8.484;2022-09-03T00:38:05;3.60;;;1.33;;
8958;SDS011;4514;49.476;8.484;2022-09-03T00:43:09;1.95;;;1.08;;
8958;SDS011;4514;49.476;8.484;2022-09-03T00:45:56;2.70;;;1.45;;
8958;SDS011;4514;49.476;8.484;2022-09-03T01:00:31;1.52;;;1.27;;
8958;SDS011;4514;49.476;8.484;2022-09-03T01:08:11;1.40;;;1.30;;
8958;SDS011;4514;49.476;8.484;2022-09-03T01:11:18;1.20;;;1.10;;
8958;SDS011;4514;49.476;8.484;2022-09-03T01:25:05;1.30;;;1.20;;
8958;SDS011;4514;49.476;8.484;2022-09-03T01:30:36;2.50;;;1.20;;
8958;SDS011;4514;49.476;8.484;2022-09-03T01:35:43;1.00;;;1.00;;
8958;SDS011;4514;49.476;8.484;2022-09-03T01:46:07;2.53;;;1.20;;
8958;SDS011;4514;49.476;8.484;2022-09-03T01:48:39;2.30;;;1.30;;
8958;SDS011;4514;49.476;8.484;2022-09-03T01:51:24;3.60;;;1.40;;
8958;SDS011;4514;49.476;8.484;2022-09-03T02:04:31;1.30;;;1.20;;
8958;SDS011;4514;49.476;8.484;2022-09-03T02:06:58;3.08;;;1.27;;
8958;SDS011;4514;49.476;8.484;2022-09-03T02:09:27;1.73;;;1.25;;
8958;SDS011;4514;49.476;8.484;2022-09-03T02:11:54;1.30;;;1.20;;
8958;SDS011;4514;49.476;8.484;2022-09-03T02:14:23;2.00;;;1.50;;
8958;SDS011;4514;49.476;8.484;2022-09-03T02:16:49;3.25;;;1.20;;
8958;SDS011;4514;49.476;8.484;2022-09-03T02:19:15;1.88;;;1.08;;
8958;SDS011;4514;49.476;8.484;2022-09-03T02:21:44;1.65;;;1.30;;
8958;SDS011;4514;49.476;8.484;2022-09-03T02:24:15;1.85;;;1.33;;
8958;SDS011;4514;49.476;8.484;2022-09-03T02:26:40;1.83;;;1.30;;
8958;SDS011;4514;49.476;8.484;2022-09-03T02:29:06;1.88;;;1.20;;
8958;SDS011;4514;49.476;8.484;2022-09-03T02:31:31;2.70;;;1.20;;
8958;SDS011;4514;49.476;8.484;2022-09-03T02:34:01;1.10;;;1.10;;
8958;SDS011;4514;49.476;8.484;2022-09-03T02:36:30;1.45;;;1.35;;
8958;SDS011;4514;49.476;8.484;2022-09-03T02:39:00;2.25;;;1.60;;
8958;SDS011;4514;49.476;8.484;2022-09-03T02:41:26;1.92;;;1.35;;
8958;SDS011;4514;49.476;8.484;2022-09-03T02:46:33;3.78;;;1.77;;
8958;SDS011;4514;49.476;8.484;2022-09-03T02:49:01;2.47;;;1.70;;
8958;SDS011;4514;49.476;8.484;2022-09-03T02:51:30;1.80;;;1.70;;
8958;SDS011;4514;49.476;8.484;2022-09-03T02:53:59;1.92;;;1.83;;
8958;SDS011;4514;49.476;8.484;2022-09-03T02:56:24;2.05;;;1.77;;
8958;SDS011;4514;49.476;8.484;2022-09-03T02:58:54;4.13;;;1.85;;
8958;SDS011;4514;49.476;8.484;2022-09-03T03:01:20;3.58;;;1.83;;
8958;SDS011;4514;49.476;8.484;2022-09-03T03:03:45;2.97;;;1.90;;
8958;SDS011;4514;49.476;8.484;2022-09-03T03:06:11;1.70;;;1.60;;
8958;SDS011;4514;49.476;8.484;2022-09-03T03:08:38;1.83;;;1.58;;
8958;SDS011;4514;49.476;8.484;2022-09-03T03:11:04;2.28;;;2.03;;
8958;SDS011;4514;49.476;8.484;2022-09-03T03:13:32;1.90;;;1.80;;
8958;SDS011;4514;49.476;8.484;2022-09-03T03:16:01;3.38;;;2.20;;
8958;SDS011;4514;49.476;8.484;2022-09-03T03:18:32;3.67;;;2.10;;
8958;SDS011;4514;49.476;8.484;2022-09-03T03:21:03;2.15;;;1.95;;
8958;SDS011;4514;49.476;8.484;2022-09-03T03:23:30;4.40;;;1.73;;
8958;SDS011;4514;49.476;8.484;2022-09-03T03:26:02;2.20;;;1.48;;
8958;SDS011;4514;49.476;8.484;2022-09-03T03:28:33;1.60;;;1.50;;
8958;SDS011;4514;49.476;8.484;2022-09-03T03:31:13;1.58;;;1.48;;
8958;SDS011;4514;49.476;8.484;2022-09-03T03:33:42;3.45;;;1.50;;
8958;SDS011;4514;49.476;8.484;2022-09-03T03:36:14;1.60;;;1.50;;
8958;SDS011;4514;49.476;8.484;2022-09-03T03:38:40;2.50;;;1.42;;
8958;SDS011;4514;49.476;8.484;2022-09-03T03:41:14;2.42;;;1.35;;
8958;SDS011;4514;49.476;8.484;2022-09-03T03:43:41;2.20;;;1.25;;
8958;SDS011;4514;49.476;8.484;2022-09-03T03:46:11;1.92;;;1.15;;
8958;SDS011;4514;49.476;8.484;2022-09-03T03:48:37;2.63;;;1.30;;
8958;SDS011;4514;49.476;8.484;2022-09-03T03:51:03;4.07;;;1.42;;
8958;SDS011;4514;49.476;8.484;2022-09-03T03:53:31;3.03;;;1.27;;
8958;SDS011;4514;49.476;8.484;2022-09-03T03:55:58;2.95;;;1.30;;
8958;SDS011;4514;49.476;8.484;2022-09-03T03:58:26;1.55;;;1.30;;
8958;SDS011;4514;49.476;8.484;2022-09-03T04:00:52;3.53;;;1.50;;
8958;SDS011;4514;49.476;8.484;2022-09-03T04:03:18;1.52;;;1.30;;
8958;SDS011;4514;49.476;8.484;2022-09-03T04:05:56;1.60;;;1.30;;
8958;SDS011;4514;49.476;8.484;2022-09-03T04:08:23;3.33;;;1.50;;
8958;SDS011;4514;49.476;8.484;2022-09-03T04:10:49;1.52;;;1.42;;
8958;SDS011;4514;49.476;8.484;2022-09-03T04:13:17;1.90;;;1.30;;
8958;SDS011;4514;49.476;8.484;2022-09-03T04:15:42;1.80;;;1.40;;
8958;SDS011;4514;49.476;8.484;2022-09-03T04:18:08;1.42;;;1.33;;
8958;SDS011;4514;49.476;8.484;2022-09-03T04:20:37;1.95;;;1.30;;
8958;SDS011;4514;49.476;8.484;2022-09-03T04:23:03;2.75;;;1.20;;
8958;SDS011;4514;49.476;8.484;2022-09-03T04:25:31;1.77;;;1.27;;
8958;SDS011;4514;49.476;8.484;2022-09-03T04:27:56;1.30;;;1.20;;
8958;SDS011;4514;49.476;8.484;2022-09-03T04:30:22;3.28;;;1.25;;
8958;SDS011;4514;49.476;8.484;2022-09-03T04:32:50;2.30;;;1.40;;
8958;SDS011;4514;49.476;8.484;2022-09-03T04:35:20;1.30;;;1.20;;
8958;SDS011;4514;49.476;8.484;2022-09-03T04:37:49;2.13;;;1.40;;
8958;SDS011;4514;49.476;8.484;2022-09-03T04:40:14;1.52;;;1.42;;
8958;SDS011;4514;49.476;8.484;2022-09-03T04:42:45;3.25;;;1.80;;
8958;SDS011;4514;49.476;8.484;2022-09-03T04:45:10;2.10;;;2.00;;
8958;SDS011;4514;49.476;8.484;2022-09-03T04:47:48;2.42;;;1.80;;
8958;SDS011;4514;49.476;8.484;2022-09-03T04:50:22;2.35;;;1.80;;
8958;SDS011;4514;49.476;8.484;2022-09-03T04:52:50;4.10;;;1.90;;
8958;SDS011;4514;49.476;8.484;2022-09-03T04:55:16;2.30;;;2.10;;
8958;SDS011;4514;49.476;8.484;2022-09-03T04:57:43;3.78;;;2.05;;
8958;SDS011;4514;49.476;8.484;2022-09-03T05:00:11;2.03;;;1.92;;
8958;SDS011;4514;49.476;8.484;2022-09-03T05:02:42;2.35;;;2.20;;
8958;SDS011;4514;49.476;8.484;2022-09-03T05:05:10;3.08;;;2.17;;
8958;SDS011;4514;49.476;8.484;2022-09-03T05:07:38;3.15;;;2.10;;
8958;SDS011;4514;49.476;8.484;2022-09-03T05:10:07;2.20;;;2.00;;
8958;SDS011;4514;49.476;8.484;2022-09-03T05:12:34;2.00;;;1.85;;
8958;SDS011;4514;49.476;8.484;2022-09-03T05:14:59;2.13;;;1.88;;
8958;SDS011;4514;49.476;8.484;2022-09-03T05:17:25;4.32;;;2.00;;
8958;SDS011;4514;49.476;8.484;2022-09-03T05:19:52;2.33;;;1.90;;
8958;SDS011;4514;49.476;8.484;2022-09-03T05:22:18;2.33;;;2.13;;
8958;SDS011;4514;49.476;8.484;2022-09-03T05:24:48;2.33;;;2.15;;
8958;SDS011;4514;49.476;8.484;2022-09-03T05:27:17;2.83;;;2.35;;
8958;SDS011;4514;49.476;8.484;2022-09-03T05:29:43;3.47;;;2.25;;
8958;SDS011;4514;49.476;8.484;2022-09-03T05:32:09;2.03;;;1.83;;
8958;SDS011;4514;49.476;8.484;2022-09-03T05:34:35;5.95;;;2.20;;
8958;SDS011;4514;49.476;8.484;2022-09-03T05:37:02;3.70;;;1.90;;
8958;SDS011;4514;49.476;8.484;2022-09-03T05:39:28;3.38;;;1.92;;
8958;SDS011;4514;49.476;8.484;2022-09-03T05:41:55;3.28;;;1.55;;
8958;SDS011;4514;49.476;8.484;2022-09-03T05:44:21;5.78;;;1.60;;
8958;SDS011;4514;49.476;8.484;2022-09-03T05:46:50;2.45;;;1.40;;
8958;SDS011;4514;49.476;8.484;2022-09-03T05:49:15;2.10;;;1.83;;
8958;SDS011;4514;49.476;8.484;2022-09-03T05:51:41;2.50;;;1.50;;
8958;SDS011;4514;49.476;8.484;2022-09-03T05:54:08;2.47;;;1.45;;
8958;SDS011;4514;49.476;8.484;2022-09-03T05:56:37;2.90;;;1.63;;
8958;SDS011;4514;49.476;8.484;2022-09-03T05:59:06;1.70;;;1.52;;
8958;SDS011;4514;49.476;8.484;2022-09-03T06:01:38;1.40;;;1.30;;
8958;SDS011;4514;49.476;8.484;2022-09-03T06:04:05;1.70;;;1.30;;
8958;SDS011;4514;49.476;8.484;2022-09-03T06:06:35;2.90;;;1.55;;
8958;SDS011;4514;49.476;8.484;2022-09-03T06:09:05;2.90;;;1.73;;
8958;SDS011;4514;49.476;8.484;2022-09-03T06:11:32;1.92;;;1.67;;
8958;SDS011;4514;49.476;8.484;2022-09-03T06:13:59;1.60;;;1.50;;
8958;SDS011;4514;49.476;8.484;2022-09-03T06:16:26;2.72;;;1.52;;
8958;SDS011;4514;49.476;8.484;2022-09-03T06:18:56;2.88;;;1.70;;
8958;SDS011;4514;49.476;8.484;2022-09-03T06:21:23;2.35;;;1.73;;
8958;SDS011;4514;49.476;8.484;2022-09-03T06:23:53;2.88;;;1.70;;
8958;SDS011;4514;49.476;8.484;2022-09-03T06:26:24;2.30;;;1.60;;
8958;SDS011;4514;49.476;8.484;2022-09-03T06:28:52;2.83;;;1.48;;
8958;SDS011;4514;49.476;8.484;2022-09-03T06:31:21;1.90;;;1.52;;
8958;SDS011;4514;49.476;8.484;2022-09-03T06:33:47;2.25;;;1.80;;
8958;SDS011;4514;49.476;8.484;2022-09-03T06:36:17;2.17;;;1.70;;
8958;SDS011;4514;49.476;8.484;2022-09-03T06:38:43;3.20;;;1.95;;
8958;SDS011;4514;49.476;8.484;2022-09-03T06:41:19;2.72;;;1.83;;
8958;SDS011;4514;49.476;8.484;2022-09-03T06:43:49;3.38;;;1.90;;
8958;SDS011;4514;49.476;8.484;2022-09-03T06:46:20;2.45;;;2.05;;
8958;SDS011;4514;49.476;8.484;2022-09-03T06:48:46;2.42;;;2.20;;
8958;SDS011;4514;49.476;8.484;2022-09-03T06:51:13;2.28;;;1.92;;
8958;SDS011;4514;49.476;8.484;2022-09-03T06:53:41;2.85;;;2.60;;
8958;SDS011;4514;49.476;8.484;2022-09-03T06:56:09;4.43;;;2.30;;
8958;SDS011;4514;49.476;8.484;2022-09-03T06:58:40;4.03;;;2.40;;
8958;SDS011;4514;49.476;8.484;2022-09-03T07:01:11;4.82;;;2.33;;
8958;SDS011;4514;49.476;8.484;2022-09-03T07:03:42;2.38;;;2.17;;
8958;SDS011;4514;49.476;8.484;2022-09-03T07:06:12;2.65;;;2.40;;
8958;SDS011;4514;49.476;8.484;2022-09-03T07:08:39;3.45;;;2.30;;
8958;SDS011;4514;49.476;8.484;2022-09-03T07:11:07;3.55;;;2.30;;
8958;SDS011;4514;49.476;8.484;2022-09-03T07:13:40;2.45;;;2.10;;
8958;SDS011;4514;49.476;8.484;2022-09-03T07:16:08;5.07;;;2.63;;
8958;SDS011;4514;49.476;8.484;2022-09-03T07:18:37;4.07;;;2.70;;
8958;SDS011;4514;49.476;8.484;2022-09-03T07:21:04;3.80;;;2.72;;
8958;SDS011;4514;49.476;8.484;2022-09-03T07:23:31;3.17;;;2.72;;
8958;SDS011;4514;49.476;8.484;2022-09-03T07:25:58;3.83;;;2.58;;
8958;SDS011;4514;49.476;8.484;2022-09-03T07:28:25;2.70;;;2.50;;
8958;SDS011;4514;49.476;8.484;2022-09-03T07:30:52;2.63;;;2.40;;
8958;SDS011;4514;49.476;8.484;2022-09-03T07:33:20;3.85;;;2.97;;
8958;SDS011;4514;49.476;8.484;2022-09-03T07:35:46;2.88;;;2.58;;
8958;SDS011;4514;49.476;8.484;2022-09-03T07:38:15;4.05;;;2.50;;
8958;SDS011;4514;49.476;8.484;2022-09-03T07:40:43;3.13;;;2.80;;
8958;SDS011;4514;49.476;8.484;2022-09-03T07:43:08;3.42;;;2.60;;
8958;SDS011;4514;49.476;8.484;2022-09-03T07:45:37;2.63;;;2.38;;
8958;SDS011;4514;49.476;8.484;2022-09-03T07:48:03;4.65;;;2.50;;
8958;SDS011;4514;49.476;8.484;2022-09-03T07:50:31;5.85;;;2.97;;
8958;SDS011;4514;49.476;8.484;2022-09-03T07:53:03;2.80;;;2.60;;
8958;SDS011;4514;49.476;8.484;2022-09-03T07:55:34;4.35;;;3.20;;
8958;SDS011;4514;49.476;8.484;2022-09-03T07:58:00;3.67;;;3.30;;
8958;SDS011;4514;49.476;8.484;2022-09-03T08:00:28;5.32;;;3.80;;
8958;SDS011;4514;49.476;8.484;2022-09-03T08:02:56;3.13;;;2.83;;
8958;SDS011;4514;49.476;8.484;2022-09-03T08:05:25;5.35;;;3.65;;
8958;SDS011;4514;49.476;8.484;2022-09-03T08:07:50;4.20;;;3.80;;
8958;SDS011;4514;49.476;8.484;2022-09-03T08:10:18;5.38;;;4.00;;
8958;SDS011;4514;49.476;8.484;2022-09-03T08:12:43;4.70;;;4.10;;
8958;SDS011;4514;49.476;8.484;2022-09-03T08:15:09;5.07;;;3.67;;
8958;SDS011;4514;49.476;8.484;2022-09-03T08:17:35;6.68;;;3.60;;
8958;SDS011;4514;49.476;8.484;2022-09-03T08:20:01;3.83;;;3.50;;
8958;SDS011;4514;49.476;8.484;2022-09-03T08:22:27;3.92;;;3.25;;
8958;SDS011;4514;49.476;8.484;2022-09-03T08:24:52;3.40;;;3.10;;
8958;SDS011;4514;49.476;8.484;2022-09-03T08:27:19;3.42;;;3.13;;
8958;SDS011;4514;49.476;8.484;2022-09-03T08:29:51;4.07;;;3.45;;
8958;SDS011;4514;49.476;8.484;2022-09-03T08:32:19;3.88;;;3.00;;
8958;SDS011;4514;49.476;8.484;2022-09-03T08:34:47;5.90;;;3.38;;
8958;SDS011;4514;49.476;8.484;2022-09-03T08:37:15;5.05;;;3.22;;
8958;SDS011;4514;49.476;8.484;2022-09-03T08:39:43;4.35;;;3.10;;
8958;SDS011;4514;49.476;8.484;2022-09-03T08:44:44;4.13;;;2.88;;
8958;SDS011;4514;49.476;8.484;2022-09-03T08:52:40;5.15;;;4.05;;
8958;SDS011;4514;49.476;8.484;2022-09-03T08:57:49;3.95;;;2.92;;
8958;SDS011;4514;49.476;8.484;2022-09-03T09:00:18;4.50;;;3.13;;
8958;SDS011;4514;49.476;8.484;2022-09-03T09:02:47;3.20;;;2.60;;
8958;SDS011;4514;49.476;8.484;2022-09-03T09:05:18;4.80;;;3.10;;
8958;SDS011;4514;49.476;8.484;2022-09-03T09:07:52;4.07;;;3.30;;
8958;SDS011;4514;49.476;8.484;2022-09-03T09:10:38;5.38;;;3.33;;
8958;SDS011;4514;49.476;8.484;2022-09-03T09:21:29;4.50;;;2.95;;
8958;SDS011;4514;49.476;8.484;2022-09-03T09:23:59;6.15;;;3.22;;
8958;SDS011;4514;49.476;8.484;2022-09-03T09:26:32;3.95;;;2.75;;
8958;SDS011;4514;49.476;8.484;2022-09-03T09:29:03;4.45;;;3.47;;
8958;SDS011;4514;49.476;8.484;2022-09-03T09:31:31;3.70;;;3.40;;
8958;SDS011;4514;49.476;8.484;2022-09-03T09:34:03;3.00;;;2.80;;
8958;SDS011;4514;49.476;8.484;2022-09-03T09:36:30;2.95;;;2.70;;
8958;SDS011;4514;49.476;8.484;2022-09-03T09:39:08;3.35;;;2.88;;
8958;SDS011;4514;49.476;8.484;2022-09-03T09:41:36;2.85;;;2.65;;
8958;SDS011;4514;49.476;8.484;2022-09-03T09:44:04;3.13;;;2.88;;
8958;SDS011;4514;49.476;8.484;2022-09-03T09:46:32;5.05;;;2.90;;
8958;SDS011;4514;49.476;8.484;2022-09-03T09:52:01;2.90;;;2.60;;
8958;SDS011;4514;49.476;8.484;2022-09-03T09:54:29;3.05;;;2.55;;
8958;SDS011;4514;49.476;8.484;2022-09-03T09:57:02;3.13;;;2.83;;
8958;SDS011;4514;49.476;8.484;2022-09-03T09:59:29;3.60;;;3.00;;
8958;SDS011;4514;49.476;8.484;2022-09-03T10:02:12;3.03;;;2.75;;
8958;SDS011;4514;49.476;8.484;2022-09-03T10:04:55;4.15;;;3.13;;
8958;SDS011;4514;49.476;8.484;2022-09-03T10:10:26;4.30;;;3.20;;
8958;SDS011;4514;49.476;8.484;2022-09-03T10:13:08;3.85;;;3.45;;
8958;SDS011;4514;49.476;8.484;2022-09-03T10:15:40;4.38;;;3.33;;
8958;SDS011;4514;49.476;8.484;2022-09-03T10:18:38;3.63;;;3.33;;
8958;SDS011;4514;49.476;8.484;2022-09-03T10:26:40;3.63;;;3.33;;
8958;SDS011;4514;49.476;8.484;2022-09-03T10:29:09;6.97;;;5.82;;
8958;SDS011;4514;49.476;8.484;2022-09-03T10:37:54;6.43;;;5.78;;
8958;SDS011;4514;49.476;8.484;2022-09-03T10:49:53;3.78;;;3.47;;
8958;SDS011;4514;49.476;8.484;2022-09-03T10:52:27;3.25;;;3.05;;
8958;SDS011;4514;49.476;8.484;2022-09-03T10:58:03;3.45;;;3.15;;
8958;SDS011;4514;49.476;8.484;2022-09-03T11:00:38;3.05;;;2.85;;
8958;SDS011;4514;49.476;8.484;2022-09-03T11:05:36;3.60;;;3.28;;
8958;SDS011;4514;49.476;8.484;2022-09-03T11:10:34;3.08;;;2.85;;
8958;SDS011;4514;49.476;8.484;2022-09-03T11:13:07;3.22;;;3.03;;
8958;SDS011;4514;49.476;8.484;2022-09-03T11:15:54;3.22;;;3.00;;
8958;SDS011;4514;49.476;8.484;2022-09-03T11:18:38;3.20;;;3.00;;
8958;SDS011;4514;49.476;8.484;2022-09-03T11:21:10;4.25;;;3.00;;
8958;SDS011;4514;49.476;8.484;2022-09-03T11:23:41;4.07;;;3.78;;
8958;SDS011;4514;49.476;8.484;2022-09-03T11:26:09;4.22;;;3.80;;
8958;SDS011;4514;49.476;8.484;2022-09-03T11:34:32;4.28;;;3.20;;
8958;SDS011;4514;49.476;8.484;2022-09-03T11:39:54;2.80;;;2.60;;
8958;SDS011;4514;49.476;8.484;2022-09-03T11:42:43;2.35;;;2.10;;
8958;SDS011;4514;49.476;8.484;2022-09-03T11:47:51;3.47;;;2.35;;
8958;SDS011;4514;49.476;8.484;2022-09-03T11:50:22;2.15;;;2.05;;
8958;SDS011;4514;49.476;8.484;2022-09-03T11:52:50;2.22;;;1.90;;
8958;SDS011;4514;49.476;8.484;2022-09-03T11:55:27;1.80;;;1.70;;
8958;SDS011;4514;49.476;8.484;2022-09-03T11:57:55;1.60;;;1.50;;
8958;SDS011;4514;49.476;8.484;2022-09-03T12:00:21;2.03;;;1.63;;
8958;SDS011;4514;49.476;8.484;2022-09-03T12:02:56;3.58;;;1.80;;
8958;SDS011;4514;49.476;8.484;2022-09-03T12:05:35;1.85;;;1.55;;
8958;SDS011;4514;49.476;8.484;2022-09-03T12:08:59;1.83;;;1.73;;
8958;SDS011;4514;49.476;8.484;2022-09-03T12:11:44;2.17;;;1.97;;
8958;SDS011;4514;49.476;8.484;2022-09-03T12:14:19;1.85;;;1.75;;
8958;SDS011;4514;49.476;8.484;2022-09-03T12:19:39;1.70;;;1.60;;
8958;SDS011;4514;49.476;8.484;2022-09-03T12:22:06;2.08;;;1.50;;
8958;SDS011;4514;49.476;8.484;2022-09-03T12:24:38;1.48;;;1.25;;
8958;SDS011;4514;49.476;8.484;2022-09-03T12:27:07;1.30;;;1.23;;
8958;SDS011;4514;49.476;8.484;2022-09-03T12:29:37;1.60;;;1.50;;
8958;SDS011;4514;49.476;8.484;2022-09-03T12:32:07;1.75;;;1.40;;
8958;SDS011;4514;49.476;8.484;2022-09-03T12:34:36;1.52;;;1.42;;
8958;SDS011;4514;49.476;8.484;2022-09-03T12:37:02;1.30;;;1.20;;
8958;SDS011;4514;49.476;8.484;2022-09-03T12:39:29;2.05;;;1.40;;
8958;SDS011;4514;49.476;8.484;2022-09-03T12:42:05;2.25;;;1.30;;
8958;SDS011;4514;49.476;8.484;2022-09-03T12:47:14;1.83;;;1.73;;
8958;SDS011;4514;49.476;8.484;2022-09-03T12:49:46;1.80;;;1.70;;
8958;SDS011;4514;49.476;8.484;2022-09-03T12:52:26;2.13;;;1.77;;
8958;SDS011;4514;49.476;8.484;2022-09-03T12:57:33;1.80;;;1.70;;
8958;SDS011;4514;49.476;8.484;2022-09-03T13:00:05;1.80;;;1.70;;
8958;SDS011;4514;49.476;8.484;2022-09-03T13:02:45;1.60;;;1.50;;
8958;SDS011;4514;49.476;8.484;2022-09-03T13:05:34;1.63;;;1.40;;
8958;SDS011;4514;49.476;8.484;2022-09-03T13:08:06;2.30;;;2.10;;
8958;SDS011;4514;49.476;8.484;2022-09-03T13:10:33;2.67;;;1.88;;
8958;SDS011;4514;49.476;8.484;2022-09-03T13:13:06;3.13;;;2.88;;
8958;SDS011;4514;49.476;8.484;2022-09-03T13:15:35;1.83;;;1.73;;
8958;SDS011;4514;49.476;8.484;2022-09-03T13:20:33;2.22;;;1.95;;
8958;SDS011;4514;49.476;8.484;2022-09-03T13:33:55;2.70;;;2.50;;
8958;SDS011;4514;49.476;8.484;2022-09-03T13:36:26;2.05;;;1.95;;
8958;SDS011;4514;49.476;8.484;2022-09-03T13:38:56;2.85;;;2.58;;
8958;SDS011;4514;49.476;8.484;2022-09-03T13:41:47;2.90;;;2.70;;
8958;SDS011;4514;49.476;8.484;2022-09-03T13:46:54;3.13;;;2.78;;
8958;SDS011;4514;49.476;8.484;2022-09-03T14:01:11;3.80;;;3.10;;
8958;SDS011;4514;49.476;8.484;2022-09-03T14:03:51;3.70;;;3.40;;
8958;SDS011;4514;49.476;8.484;2022-09-03T14:06:28;3.60;;;3.30;;
8958;SDS011;4514;49.476;8.484;2022-09-03T14:09:14;4.07;;;3.72;;
8958;SDS011;4514;49.476;8.484;2022-09-03T14:18:31;3.72;;;3.42;;
8958;SDS011;4514;49.476;8.484;2022-09-03T14:24:14;3.30;;;3.10;;
8958;SDS011;4514;49.476;8.484;2022-09-03T14:26:36;3.47;;;3.25;;
8958;SDS011;4514;49.476;8.484;2022-09-03T14:29:03;5.47;;;3.75;;
8958;SDS011;4514;49.476;8.484;2022-09-03T14:57:30;3.88;;;3.58;;
8958;SDS011;4514;49.476;8.484;2022-09-03T15:05:10;3.58;;;3.28;;
8958;SDS011;4514;49.476;8.484;2022-09-03T15:07:46;4.10;;;3.15;;
8958;SDS011;4514;49.476;8.484;2022-09-03T15:12:54;3.85;;;3.45;;
8958;SDS011;4514;49.476;8.484;2022-09-03T15:15:49;3.65;;;3.35;;
8958;SDS011;4514;49.476;8.484;2022-09-03T15:21:12;3.55;;;3.25;;
8958;SDS011;4514;49.476;8.484;2022-09-03T15:36:55;3.10;;;2.83;;
8958;SDS011;4514;49.476;8.484;2022-09-03T15:39:27;3.55;;;3.22;;
8958;SDS011;4514;49.476;8.484;2022-09-03T15:41:57;3.33;;;2.90;;
8958;SDS011;4514;49.476;8.484;2022-09-03T15:44:24;2.92;;;2.70;;
8958;SDS011;4514;49.476;8.484;2022-09-03T15:46:59;2.78;;;2.53;;
8958;SDS011;4514;49.476;8.484;2022-09-03T15:49:45;2.80;;;2.60;;
8958;SDS011;4514;49.476;8.484;2022-09-03T15:55:14;3.42;;;3.13;;
8958;SDS011;4514;49.476;8.484;2022-09-03T16:01:27;3.35;;;2.83;;
8958;SDS011;4514;49.476;8.484;2022-09-03T16:04:04;3.08;;;2.88;;
8958;SDS011;4514;49.476;8.484;2022-09-03T16:06:45;3.00;;;2.80;;
8958;SDS011;4514;49.476;8.484;2022-09-03T16:14:29;3.67;;;2.88;;
8958;SDS011;4514;49.476;8.484;2022-09-03T16:25:26;2.92;;;2.72;;
8958;SDS011;4514;49.476;8.484;2022-09-03T16:33:19;3.60;;;3.30;;
8958;SDS011;4514;49.476;8.484;2022-09-03T16:36:03;3.97;;;3.50;;
8958;SDS011;4514;49.476;8.484;2022-09-03T16:38:48;3.00;;;2.70;;
8958;SDS011;4514;49.476;8.484;2022-09-03T16:44:26;3.15;;;2.85;;
8958;SDS011;4514;49.476;8.484;2022-09-03T17:21:04;3.50;;;3.20;;
8958;SDS011;4514;49.476;8.484;2022-09-03T17:26:27;5.95;;;3.70;;
8958;SDS011;4514;49.476;8.484;2022-09-03T17:31:55;3.75;;;3.25;;
8958;SDS011;4514;49.476;8.484;2022-09-03T17:42:27;3.65;;;3.35;;
8958;SDS011;4514;49.476;8.484;2022-09-03T17:45:31;4.35;;;3.92;;
8958;SDS011;4514;49.476;8.484;2022-09-03T17:48:19;3.95;;;3.60;;
8958;SDS011;4514;49.476;8.484;2022-09-03T17:53:20;4.40;;;3.63;;
8958;SDS011;4514;49.476;8.484;2022-09-03T17:56:01;4.30;;;3.97;;
8958;SDS011;4514;49.476;8.484;2022-09-03T18:11:37;4.63;;;3.45;;
8958;SDS011;4514;49.476;8.484;2022-09-03T18:16:51;4.32;;;3.90;;
8958;SDS011;4514;49.476;8.484;2022-09-03T18:19:28;6.43;;;5.93;;
8958;SDS011;4514;49.476;8.484;2022-09-03T18:22:14;4.30;;;4.00;;
8958;SDS011;4514;49.476;8.484;2022-09-03T18:24:58;4.25;;;3.88;;
8958;SDS011;4514;49.476;8.484;2022-09-03T18:27:46;4.40;;;4.10;;
8958;SDS011;4514;49.476;8.484;2022-09-03T18:30:33;6.35;;;3.80;;
8958;SDS011;4514;49.476;8.484;2022-09-03T18:33:20;4.70;;;4.30;;
8958;SDS011;4514;49.476;8.484;2022-09-03T18:36:07;5.00;;;4.47;;
8958;SDS011;4514;49.476;8.484;2022-09-03T18:38:51;4.97;;;4.57;;
8958;SDS011;4514;49.476;8.484;2022-09-03T18:50:25;5.68;;;4.95;;
8958;SDS011;4514;49.476;8.484;2022-09-03T18:53:24;5.60;;;5.10;;
8958;SDS011;4514;49.476;8.484;2022-09-03T18:56:14;6.18;;;5.40;;
8958;SDS011;4514;49.476;8.484;2022-09-03T19:02:22;5.75;;;5.22;;
8958;SDS011;4514;49.476;8.484;2022-09-03T19:05:45;5.80;;;5.22;;
8958;SDS011;4514;49.476;8.484;2022-09-03T19:11:57;5.90;;;5.38;;
8958;SDS011;4514;49.476;8.484;2022-09-03T19:18:10;7.18;;;6.50;;
8958;SDS011;4514;49.476;8.484;2022-09-03T19:24:12;6.43;;;5.82;;
8958;SDS011;4514;49.476;8.484;2022-09-03T19:27:12;6.30;;;5.80;;
8958;SDS011;4514;49.476;8.484;2022-09-03T19:30:03;7.18;;;6.38;;
8958;SDS011;4514;49.476;8.484;2022-09-03T19:36:15;8.38;;;7.68;;
8958;SDS011;4514;49.476;8.484;2022-09-03T19:54:02;8.85;;;7.30;;
8958;SDS011;4514;49.476;8.484;2022-09-03T19:56:48;7.90;;;7.30;;
8958;SDS011;4514;49.476;8.484;2022-09-03T19:59:34;7.60;;;6.97;;
8958;SDS011;4514;49.476;8.484;2022-09-03T20:02:20;7.70;;;7.10;;
8958;SDS011;4514;49.476;8.484;2022-09-03T20:05:26;7.78;;;7.18;;
8958;SDS011;4514;49.476;8.484;2022-09-03T20:08:12;7.65;;;7.05;;
8958;SDS011;4514;49.476;8.484;2022-09-03T20:10:58;8.02;;;7.25;;
8958;SDS011;4514;49.476;8.484;2022-09-03T20:13:23;7.97;;;7.30;;
8958;SDS011;4514;49.476;8.484;2022-09-03T20:32:13;7.53;;;6.78;;
8958;SDS011;4514;49.476;8.484;2022-09-03T20:34:45;7.03;;;6.50;;
8958;SDS011;4514;49.476;8.484;2022-09-03T20:37:30;7.60;;;7.00;;
8958;SDS011;4514;49.476;8.484;2022-09-03T20:42:53;7.47;;;6.80;;
8958;SDS011;4514;49.476;8.484;2022-09-03T20:48:18;7.43;;;6.78;;
8958;SDS011;4514;49.476;8.484;2022-09-03T20:50:52;7.32;;;6.65;;
8958;SDS011;4514;49.476;8.484;2022-09-03T20:56:20;8.38;;;7.55;;
8958;SDS011;4514;49.476;8.484;2022-09-03T20:59:11;9.60;;;8.70;;
8958;SDS011;4514;49.476;8.484;2022-09-03T21:04:43;9.73;;;8.60;;
8958;SDS011;4514;49.476;8.484;2022-09-03T21:10:11;13.68;;;12.55;;
8958;SDS011;4514;49.476;8.484;2022-09-03T21:16:18;11.27;;;10.27;;
8958;SDS011;4514;49.476;8.484;2022-09-03T21:19:29;10.07;;;9.27;;
8958;SDS011;4514;49.476;8.484;2022-09-03T21:24:38;10.48;;;9.57;;
8958;SDS011;4514;49.476;8.484;2022-09-03T21:27:12;13.05;;;12.02;;
8958;SDS011;4514;49.476;8.484;2022-09-03T21:29:45;10.45;;;9.65;;
8958;SDS011;4514;49.476;8.484;2022-09-03T21:32:22;9.25;;;8.45;;
8958;SDS011;4514;49.476;8.484;2022-09-03T21:34:57;8.52;;;7.82;;
8958;SDS011;4514;49.476;8.484;2022-09-03T21:37:30;9.10;;;8.37;;
8958;SDS011;4514;49.476;8.484;2022-09-03T21:40:02;7.78;;;7.18;;
8958;SDS011;4514;49.476;8.484;2022-09-03T21:42:42;7.78;;;7.18;;
8958;SDS011;4514;49.476;8.484;2022-09-03T21:48:04;7.55;;;6.85;;
8958;SDS011;4514;49.476;8.484;2022-09-03T21:50:40;6.95;;;6.38;;
8958;SDS011;4514;49.476;8.484;2022-09-03T21:53:26;7.63;;;7.03;;
8958;SDS011;4514;49.476;8.484;2022-09-03T21:56:03;7.47;;;6.70;;
8958;SDS011;4514;49.476;8.484;2022-09-03T22:04:35;6.80;;;6.30;;
8958;SDS011;4514;49.476;8.484;2022-09-03T22:07:05;6.63;;;6.00;;
8958;SDS011;4514;49.476;8.484;2022-09-03T22:12:24;8.32;;;7.53;;
8958;SDS011;4514;49.476;8.484;2022-09-03T22:14:54;10.23;;;9.00;;
8958;SDS011;4514;49.476;8.484;2022-09-03T22:20:08;7.72;;;7.13;;
8958;SDS011;4514;49.476;8.484;2022-09-03T22:28:09;8.80;;;7.90;;
8958;SDS011;4514;49.476;8.484;2022-09-03T22:33:24;8.38;;;7.60;;
8958;SDS011;4514;49.476;8.484;2022-09-03T22:38:43;8.00;;;7.40;;
8958;SDS011;4514;49.476;8.484;2022-09-03T22:41:26;8.93;;;8.10;;
8958;SDS011;4514;49.476;8.484;2022-09-03T22:46:41;8.80;;;8.00;;
8958;SDS011;4514;49.476;8.484;2022-09-03T22:49:19;8.20;;;7.55;;
8958;SDS011;4514;49.476;8.484;2022-09-03T22:54:42;8.20;;;7.50;;
8958;SDS011;4514;49.476;8.484;2022-09-03T22:57:13;8.35;;;7.68;;
8958;SDS011;4514;49.476;8.484;2022-09-03T22:59:44;9.75;;;8.95;;